Sagehen Creek Weather observations

Data are for observation ending at time listed.
 Day   Time    Ave.   Ave.  Ave.  Vector   Max.   Stn.    Total    Solar   Ave.  
  of    of     Air    Rel.  Wind   Wind    Wind   Baro.  Precip.   Rad.    Soil  
Year   Day     Temp.  Hum.  Speed  Dir.    Gust   Pres.                    Temp. 
2016   (PST)    F      %     mph   deg.    mph     mb.     in.     W/m2     F   
------------------------------------------------------------------------------
 146   14:10   53.3    55    2.2    65      5.2   835.5    2.78     112    999.0
 146   14:20   51.4    62    1.9   258      4.4   835.7    2.79      26    999.0
 146   14:30   47.4    79    2.0   242      4.8   836.0    2.80      37    999.0
 146   14:40   45.5    86    1.0   247      2.5   836.5    2.80      75    999.0
 146   14:50   45.1    85    1.8   240      4.9   836.4    2.80     112    999.0
 146   15:00   44.4    83    1.7   264      5.6   836.3    2.80     109    999.0
 146   15:10   44.5    84    1.6   262      4.5   836.6    2.80     182    999.0
 146   15:20   45.1    84    1.2   277      3.6   836.6    2.80     129    999.0
 146   15:30   45.0    84    0.6   298      1.4   836.5    2.80      59    999.0
 146   15:40   45.0    84    0.2    90      1.3   836.5    2.81      42    999.0
 146   15:50   44.7    85    0.7    90      2.5   836.7    2.83      56    999.0
 146   16:00   44.5    87    0.3    74      1.6   836.9    2.84      46    999.0
 146   16:10   44.4    88    0.9   101      2.3   836.6    2.86     102    999.0
 146   16:20   44.8    89    0.3   170      0.9   836.7    2.86     136    999.0
 146   16:30   46.0    89    0.7   246      1.7   836.7    2.86     453    999.0
 146   16:40   49.0    78    0.9   164      3.4   836.8    2.86     575    999.0
 146   16:50   50.1    75    0.6   297      2.2   836.5    2.86     364    999.0
 146   17:00   50.9    73    0.7   238      2.1   836.2    2.86     467    999.0
 146   17:10   50.8    70    1.0   160      3.8   836.7    2.86     278    999.0
 146   17:20   50.0    76    0.8   187      2.9   836.7    2.86     170    999.0
 146   17:30   49.6    81    0.4     5      1.1   836.7    2.86     108    999.0
 146   17:40   48.8    81    0.7    25      1.8   836.3    2.86      45    999.0
 146   17:50   48.0    81    1.3    51      3.3   836.4    2.86      59    999.0
 146   18:00   47.1    82    2.3    73      5.9   836.5    2.86      65    999.0
 146   18:10   46.0    84    1.0    82      3.5   836.9    2.86      71    999.0
 146   18:20   46.4    85    0.0   192      0.7   836.9    2.86      62    999.0
 146   18:30   46.3    84    0.7   103      1.4   836.9    2.86      40    999.0
 146   18:40   45.9    85    0.4    95      2.1   836.7    2.86      20    999.0
 146   18:50   45.6    85    0.5    68      1.6   836.9    2.86      13    999.0
 146   19:00   45.2    88    0.0     0      0.0   837.1    2.86       9    999.0
 146   19:10   44.8    89    0.0     0      0.0   837.2    2.86       5    999.0
 146   19:20   44.4    90    0.0     0      0.0   836.9    2.86       2    999.0
 146   19:30   44.1    91    0.0     0      0.0   836.6    2.86       1    999.0
 146   19:40   44.0    92    0.1   238      0.7   837.2    2.86       0    999.0
 146   19:50   43.9    92    0.5   321      1.8   837.0    2.86       0    999.0
 146   20:00   43.6    92    0.6   214      2.1   836.8    2.86       0    999.0
 146   20:10   43.3    92    0.0   184      0.7   837.0    2.86       0    999.0
 146   20:20   42.9    92    0.5    32      1.3   837.2    2.86       0    999.0
 146   20:30   42.7    92    0.2   308      0.9   837.4    2.86       0    999.0
 146   20:40   42.5    92    0.2   271      1.3   837.2    2.86       0    999.0
 146   20:50   42.0    92    0.0     0      0.0   837.4    2.86       0    999.0
 146   21:00   41.6    92    0.1   132      1.0   837.5    2.86       0    999.0
 146   21:10   41.3    92    0.3   125      2.2   837.2    2.86       0    999.0
 146   21:20   41.1    93    0.8    76      1.8   837.4    2.86       0    999.0
 146   21:30   41.0    93    0.9    89      1.5   837.5    2.86       0    999.0
 146   21:40   40.8    93    0.5    98      1.2   837.0    2.86       0    999.0
 146   21:50   40.7    93    0.0     0      0.0   837.4    2.86       0    999.0
 146   22:00   40.7    93    0.0     0      0.0   837.7    2.86       0    999.0
 146   22:10   40.6    93    0.0     0      0.0   837.2    2.86       0    999.0
 146   22:20   40.5    93    0.1   162      0.6   837.4    2.86       0    999.0
 146   22:30   40.5    93    0.0   264      0.4   837.7    2.86       0    999.0
 146   22:40   40.4    93    0.0     0      0.0   837.6    2.86       0    999.0
 146   22:50   40.1    93    0.2   260      0.9   837.6    2.86       0    999.0
 146   23:00   39.6    93    0.0   257      0.3   837.7    2.86       0    999.0
 146   23:10   38.9    93    0.0     0      0.0   837.2    2.86       0    999.0
 146   23:20   38.1    93    0.0     0      0.0   837.4    2.86       0    999.0
 146   23:30   37.5    93    0.0     0      0.0   837.6    2.86       0    999.0
 146   23:40   37.2    93    0.1   181      0.6   837.2    2.86       0    999.0
 146   23:50   36.7    93    0.3   186      1.1   837.3    2.86       0    999.0
 147    0:00   36.1    93    0.1   193      0.8   837.4    2.86       0    999.0
 147    0:10   35.7    94    0.0     0      0.0   837.3    2.86       0    999.0
 147    0:20   34.9    94    0.5   165      1.4   837.3    2.86       0    999.0
 147    0:30   34.2    94    0.1   190      0.6   837.4    2.86       0    999.0
 147    0:40   33.5    94    0.1   180      0.8   837.4    2.86       0    999.0
 147    0:50   33.2    94    0.5   264      1.0   837.2    2.86       0    999.0
 147    1:00   32.9    94    0.0   242      0.1   837.0    2.86       0    999.0
 147    1:10   32.4    94    0.0     0      0.0   837.4    2.86       0    999.0
 147    1:20   32.1    94    0.1   270      0.4   837.2    2.86       0    999.0
 147    1:30   31.8    94    0.0   266      0.1   837.0    2.86       0    999.0
 147    1:40   31.4    94    0.0     0      0.0   837.2    2.86       0    999.0
 147    1:50   31.1    94    0.0     0      0.0   837.3    2.86       0    999.0
 147    2:00   30.7    94    0.2   261      0.8   837.3    2.86       0    999.0
 147    2:10   30.5    94    0.0     0      0.0   836.8    2.86       0    999.0
 147    2:20   30.2    94    0.0     0      0.0   837.0    2.86       0    999.0
 147    2:30   30.0    94    0.0   263      0.3   837.2    2.86       0    999.0
 147    2:40   29.8    95    0.0   263      0.1   837.1    2.86       0    999.0
 147    2:50   29.8    95    0.1   263      0.7   837.0    2.86       0    999.0
 147    3:00   30.1    95    0.0   264      0.2   837.0    2.86       0    999.0
 147    3:10   30.3    95    0.0     0      0.0   837.3    2.86       0    999.0
 147    3:20   30.4    95    0.0     0      0.0   837.0    2.86       0    999.0
 147    3:30   30.6    95    0.0   280      0.3   836.7    2.86       0    999.0
 147    3:40   31.0    95    0.1   301      0.7   837.0    2.86       0    999.0
 147    3:50   31.3    95    0.0     0      0.0   837.0    2.86       0    999.0
 147    4:00   31.6    95    0.0     0      0.0   837.0    2.86       0    999.0
 147    4:10   31.9    95    0.0     0      0.0   836.6    2.86       0    999.0
 147    4:20   32.1    95    0.5   315      1.6   836.8    2.86       0    999.0
 147    4:30   32.4    95    0.2   190      0.9   837.0    2.86       0    999.0
 147    4:40   32.6    95    0.3    86      1.4   836.8    2.86       2    999.0
 147    4:50   32.7    95    0.3    96      1.4   836.9    2.86       3    999.0
 147    5:00   32.9    95    0.2   266      1.1   837.0    2.86       6    999.0
 147    5:10   33.1    95    0.2   273      0.9   837.2    2.86      11    999.0
 147    5:20   33.5    95    0.5   253      1.6   836.9    2.86      19    999.0
 147    5:30   34.0    95    0.2   304      0.9   836.7    2.86      30    999.0
 147    5:40   34.6    95    0.3   224      1.6   837.2    2.86      36    999.0
 147    5:50   35.3    95    0.4   269      1.4   837.1    2.86      62    999.0
 147    6:00   36.2    95    0.1   339      0.5   837.1    2.86     119    999.0
 147    6:10   37.4    95    0.2    33      1.1   837.0    2.86     126    999.0
 147    6:20   37.6    95    0.6    75      2.4   837.2    2.86     132    999.0
 147    6:30   39.5    95    0.5   147      1.2   837.4    2.86     303    999.0
 147    6:40   41.4    94    0.4    61      1.6   836.9    2.86     185    999.0
 147    6:50   42.2    92    0.1   345      0.6   837.1    2.86     266    999.0
 147    7:00   43.3    88    0.5    78      2.0   837.3    2.86     256    999.0
 147    7:10   45.3    83    1.4    87      3.0   836.8    2.86     378    999.0
 147    7:20   46.5    80    1.6    90      3.7   837.1    2.86     463    999.0
 147    7:30   47.4    77    1.0   142      2.3   837.4    2.86     488    999.0
 147    7:40   48.5    74    2.3    80      4.3   836.9    2.86     533    999.0
 147    7:50   49.5    71    1.7    99      4.1   837.0    2.86     620    999.0
 147    8:00   50.8    72    1.9    89      4.1   837.2    2.86     602    999.0
 147    8:10   50.8    70    2.0    91      4.2   837.4    2.86     536    999.0
 147    8:20   50.9    69    2.4   150      6.2   837.3    2.86     718    999.0
 147    8:30   52.3    63    2.3   164      5.9   837.2    2.86     821    999.0
 147    8:40   52.6    59    4.0    92      8.8   837.1    2.86     704    999.0
 147    8:50   51.0    66    2.8    71      6.5   837.1    2.86     543    999.0
 147    9:00   52.2    62    3.1    80      6.3   837.2    2.86     793    999.0
 147    9:10   52.6    58    2.1    80      7.9   837.1    2.86     442    999.0
 147    9:20   52.3    46    1.8    66      6.3   837.0    2.86     434    999.0
 147    9:30   52.2    44    2.3    73      6.9   837.0    2.86     611    999.0
 147    9:40   53.1    40    1.3    80      4.2   837.0    2.86     445    999.0
 147    9:50   53.2    44    1.0   258      2.3   837.0    2.86     407    999.0
 147   10:00   53.1    45    1.2   250      3.6   837.0    2.86     314    999.0
 147   10:10   53.1    44    1.5   264      4.3   836.9    2.86     358    999.0
 147   10:20   52.7    44    1.8   246      3.3   837.0    2.86     358    999.0
 147   10:30   53.1    42    1.9   234      3.7   837.0    2.86     469    999.0
 147   10:40   53.3    41    0.8   234      2.4   837.0    2.86     391    999.0
 147   10:50   53.7    42    1.5    73      3.1   837.2    2.86     576    999.0
 147   11:00   55.2    39    2.2   181      4.6   837.4    2.86     826    999.0
 147   11:10   56.5    41    1.4    23      2.8   836.9    2.86    1024    999.0
 147   11:20   58.0    36    1.6   188      5.3   836.8    2.86     664    999.0
 147   11:30   55.7    40    1.8    21      5.2   836.8    2.86     288    999.0
 147   11:40   55.0    44    1.3   213      2.8   837.0    2.86     278    999.0
 147   11:50   54.5    40    1.7   106      4.2   837.0    2.86     377    999.0
 147   12:00   55.6    39    2.1   118      5.5   837.1    2.86     820    999.0
 147   12:10   58.1    37    1.2   149      4.1   837.1    2.86    1011    999.0
 147   12:20   57.5    38    2.0    97      4.2   837.1    2.86     289    999.0
 147   12:30   56.5    41    1.0   205      2.7   837.1    2.86     310    999.0
 147   12:40   56.5    40    1.6    95      4.0   837.1    2.86     407    999.0
 147   12:50   57.7    38    1.7   204      4.5   837.1    2.85    1015    999.0
 147   13:00   58.8    36    2.4   114      6.2   837.1    2.86     528    999.0
 147   13:10   56.9    38    1.9    83      4.2   837.2    2.86     229    999.0
 147   13:20   56.7    38    1.6   112      3.7   837.1    2.85     843    999.0
 147   13:30   59.8    36    2.7    89      7.3   837.0    2.85    1074    999.0
 147   13:40   61.3    32    2.9   288      6.3   836.7    2.85    1024    999.0
 147   13:50   61.4    31    2.7   251      6.5   836.6    2.85    1004    999.0
 147   14:00   62.3    31    2.3   247      5.2   836.4    2.85    1022    999.0

Return to Sagehen Creek graphs page.


Western Regional Climate Center,wrcc@dri.edu